sensor_id;sensor_type;location;lat;lon;timestamp;temperature;humidity
46283;DHT22;32017;43.700;11.820;2023-03-01T00:01:03;4.30;99.90
46283;DHT22;32017;43.700;11.820;2023-03-01T00:03:24;4.30;99.90
46283;DHT22;32017;43.700;11.820;2023-03-01T00:05:45;4.40;99.90
46283;DHT22;32017;43.700;11.820;2023-03-01T00:08:05;4.40;99.90
46283;DHT22;32017;43.700;11.820;2023-03-01T00:10:26;4.40;99.90
46283;DHT22;32017;43.700;11.820;2023-03-01T00:12:47;4.40;99.90
46283;DHT22;32017;43.700;11.820;2023-03-01T00:15:07;4.40;99.90
46283;DHT22;32017;43.700;11.820;2023-03-01T00:17:27;4.40;99.90
46283;DHT22;32017;43.700;11.820;2023-03-01T00:19:48;4.40;99.90
46283;DHT22;32017;43.700;11.820;2023-03-01T00:22:10;4.30;99.90
46283;DHT22;32017;43.700;11.820;2023-03-01T00:24:29;4.30;99.90
46283;DHT22;32017;43.700;11.820;2023-03-01T00:26:53;4.30;99.90
46283;DHT22;32017;43.700;11.820;2023-03-01T00:29:14;4.30;99.90
46283;DHT22;32017;43.700;11.820;2023-03-01T00:31:35;4.30;99.90
46283;DHT22;32017;43.700;11.820;2023-03-01T00:33:57;4.30;99.90
46283;DHT22;32017;43.700;11.820;2023-03-01T00:36:18;4.40;99.90
46283;DHT22;32017;43.700;11.820;2023-03-01T00:38:45;4.30;99.90
46283;DHT22;32017;43.700;11.820;2023-03-01T00:41:07;4.30;99.90
46283;DHT22;32017;43.700;11.820;2023-03-01T00:43:27;4.30;99.90
46283;DHT22;32017;43.700;11.820;2023-03-01T00:45:47;4.30;99.90
46283;DHT22;32017;43.700;11.820;2023-03-01T00:48:07;4.20;99.90
46283;DHT22;32017;43.700;11.820;2023-03-01T00:50:27;4.20;99.90
46283;DHT22;32017;43.700;11.820;2023-03-01T00:52:51;4.20;99.90
46283;DHT22;32017;43.700;11.820;2023-03-01T00:55:11;4.10;99.90
46283;DHT22;32017;43.700;11.820;2023-03-01T00:57:31;4.10;99.90
46283;DHT22;32017;43.700;11.820;2023-03-01T00:59:51;4.20;99.90
46283;DHT22;32017;43.700;11.820;2023-03-01T01:02:14;4.10;99.90
46283;DHT22;32017;43.700;11.820;2023-03-01T01:04:35;4.10;99.90
46283;DHT22;32017;43.700;11.820;2023-03-01T01:06:56;4.10;99.90
46283;DHT22;32017;43.700;11.820;2023-03-01T01:09:17;4.10;99.90
46283;DHT22;32017;43.700;11.820;2023-03-01T01:11:37;4.10;99.90
46283;DHT22;32017;43.700;11.820;2023-03-01T01:13:58;4.10;99.90
46283;DHT22;32017;43.700;11.820;2023-03-01T01:16:20;4.00;99.90
46283;DHT22;32017;43.700;11.820;2023-03-01T01:18:40;4.10;99.90
46283;DHT22;32017;43.700;11.820;2023-03-01T01:21:13;4.10;99.90
46283;DHT22;32017;43.700;11.820;2023-03-01T01:23:33;4.10;99.90
46283;DHT22;32017;43.700;11.820;2023-03-01T01:25:53;4.00;99.90
46283;DHT22;32017;43.700;11.820;2023-03-01T01:28:13;4.10;99.90
46283;DHT22;32017;43.700;11.820;2023-03-01T01:30:33;4.00;99.90
46283;DHT22;32017;43.700;11.820;2023-03-01T01:32:53;4.00;99.90
46283;DHT22;32017;43.700;11.820;2023-03-01T01:35:14;4.00;99.90
46283;DHT22;32017;43.700;11.820;2023-03-01T01:37:35;4.10;99.90
46283;DHT22;32017;43.700;11.820;2023-03-01T01:39:55;4.10;99.90
46283;DHT22;32017;43.700;11.820;2023-03-01T01:42:17;4.10;99.90
46283;DHT22;32017;43.700;11.820;2023-03-01T01:44:37;4.10;99.90
46283;DHT22;32017;43.700;11.820;2023-03-01T01:47:06;4.10;99.90
46283;DHT22;32017;43.700;11.820;2023-03-01T01:52:17;4.10;99.90
46283;DHT22;32017;43.700;11.820;2023-03-01T01:55:00;4.20;99.90
46283;DHT22;32017;43.700;11.820;2023-03-01T01:57:32;4.20;99.90
46283;DHT22;32017;43.700;11.820;2023-03-01T01:59:58;4.20;99.90
46283;DHT22;32017;43.700;11.820;2023-03-01T02:02:19;4.20;99.90
46283;DHT22;32017;43.700;11.820;2023-03-01T02:04:40;4.30;99.90
46283;DHT22;32017;43.700;11.820;2023-03-01T02:07:21;4.30;99.90
46283;DHT22;32017;43.700;11.820;2023-03-01T02:09:50;4.30;99.90
46283;DHT22;32017;43.700;11.820;2023-03-01T02:12:15;4.20;99.90
46283;DHT22;32017;43.700;11.820;2023-03-01T02:14:36;4.20;99.90
46283;DHT22;32017;43.700;11.820;2023-03-01T02:16:57;4.20;99.90
46283;DHT22;32017;43.700;11.820;2023-03-01T02:19:44;4.20;99.90
46283;DHT22;32017;43.700;11.820;2023-03-01T02:22:45;4.20;99.90
46283;DHT22;32017;43.700;11.820;2023-03-01T02:30:25;4.30;99.90
46283;DHT22;32017;43.700;11.820;2023-03-01T02:32:46;4.30;99.90
46283;DHT22;32017;43.700;11.820;2023-03-01T02:35:12;4.30;99.90
46283;DHT22;32017;43.700;11.820;2023-03-01T02:37:35;4.30;99.90
46283;DHT22;32017;43.700;11.820;2023-03-01T02:39:59;4.40;99.90
46283;DHT22;32017;43.700;11.820;2023-03-01T02:42:28;4.40;99.90
46283;DHT22;32017;43.700;11.820;2023-03-01T02:44:50;4.40;99.90
46283;DHT22;32017;43.700;11.820;2023-03-01T02:47:11;4.40;99.90
46283;DHT22;32017;43.700;11.820;2023-03-01T02:49:35;4.40;99.90
46283;DHT22;32017;43.700;11.820;2023-03-01T02:56:57;4.40;99.90
46283;DHT22;32017;43.700;11.820;2023-03-01T02:59:20;4.40;99.90
46283;DHT22;32017;43.700;11.820;2023-03-01T03:01:46;4.30;99.90
46283;DHT22;32017;43.700;11.820;2023-03-01T03:04:13;4.30;99.90
46283;DHT22;32017;43.700;11.820;2023-03-01T03:06:38;4.40;99.90
46283;DHT22;32017;43.700;11.820;2023-03-01T03:08:58;4.40;99.90
46283;DHT22;32017;43.700;11.820;2023-03-01T03:11:20;4.40;99.90
46283;DHT22;32017;43.700;11.820;2023-03-01T03:13:40;4.40;99.90
46283;DHT22;32017;43.700;11.820;2023-03-01T03:16:08;4.40;99.90
46283;DHT22;32017;43.700;11.820;2023-03-01T03:18:28;4.40;99.90
46283;DHT22;32017;43.700;11.820;2023-03-01T03:20:49;4.40;99.90
46283;DHT22;32017;43.700;11.820;2023-03-01T03:23:13;4.30;99.90
46283;DHT22;32017;43.700;11.820;2023-03-01T03:25:33;4.40;99.90
46283;DHT22;32017;43.700;11.820;2023-03-01T03:27:57;4.40;99.90
46283;DHT22;32017;43.700;11.820;2023-03-01T03:30:18;4.40;99.90
46283;DHT22;32017;43.700;11.820;2023-03-01T03:32:40;4.40;99.90
46283;DHT22;32017;43.700;11.820;2023-03-01T03:35:02;4.30;99.90
46283;DHT22;32017;43.700;11.820;2023-03-01T03:37:29;4.30;99.90
46283;DHT22;32017;43.700;11.820;2023-03-01T03:40:09;4.30;99.90
46283;DHT22;32017;43.700;11.820;2023-03-01T03:42:36;4.30;99.90
46283;DHT22;32017;43.700;11.820;2023-03-01T03:44:56;4.30;99.90
46283;DHT22;32017;43.700;11.820;2023-03-01T03:47:19;4.20;99.90
46283;DHT22;32017;43.700;11.820;2023-03-01T03:49:39;4.20;99.90
46283;DHT22;32017;43.700;11.820;2023-03-01T03:52:04;4.10;99.90
46283;DHT22;32017;43.700;11.820;2023-03-01T03:54:25;4.10;99.90
46283;DHT22;32017;43.700;11.820;2023-03-01T03:56:45;4.10;99.90
46283;DHT22;32017;43.700;11.820;2023-03-01T03:59:05;4.10;99.90
46283;DHT22;32017;43.700;11.820;2023-03-01T04:01:26;4.20;99.90
46283;DHT22;32017;43.700;11.820;2023-03-01T04:03:46;4.10;99.90
46283;DHT22;32017;43.700;11.820;2023-03-01T04:06:31;4.20;99.90
46283;DHT22;32017;43.700;11.820;2023-03-01T04:08:51;4.20;99.90
46283;DHT22;32017;43.700;11.820;2023-03-01T04:11:18;4.30;99.90
46283;DHT22;32017;43.700;11.820;2023-03-01T04:13:48;4.30;99.90
46283;DHT22;32017;43.700;11.820;2023-03-01T04:16:35;4.40;99.90
46283;DHT22;32017;43.700;11.820;2023-03-01T04:18:55;4.40;99.90
46283;DHT22;32017;43.700;11.820;2023-03-01T04:21:42;4.40;99.90
46283;DHT22;32017;43.700;11.820;2023-03-01T04:24:02;4.40;99.90
46283;DHT22;32017;43.700;11.820;2023-03-01T04:26:23;4.50;99.90
46283;DHT22;32017;43.700;11.820;2023-03-01T04:28:43;4.40;99.90
46283;DHT22;32017;43.700;11.820;2023-03-01T04:31:17;4.40;99.90
46283;DHT22;32017;43.700;11.820;2023-03-01T04:33:45;4.30;99.90
46283;DHT22;32017;43.700;11.820;2023-03-01T04:36:06;4.40;99.90
46283;DHT22;32017;43.700;11.820;2023-03-01T04:38:28;4.40;99.90
46283;DHT22;32017;43.700;11.820;2023-03-01T04:40:48;4.40;99.90
46283;DHT22;32017;43.700;11.820;2023-03-01T04:43:09;4.40;99.90
46283;DHT22;32017;43.700;11.820;2023-03-01T04:45:31;4.40;99.90
46283;DHT22;32017;43.700;11.820;2023-03-01T04:47:51;4.40;99.90
46283;DHT22;32017;43.700;11.820;2023-03-01T04:50:14;4.40;99.90
46283;DHT22;32017;43.700;11.820;2023-03-01T04:52:35;4.40;99.90
46283;DHT22;32017;43.700;11.820;2023-03-01T04:54:55;4.40;99.90
46283;DHT22;32017;43.700;11.820;2023-03-01T04:57:18;4.40;99.90
46283;DHT22;32017;43.700;11.820;2023-03-01T04:59:39;4.40;99.90
46283;DHT22;32017;43.700;11.820;2023-03-01T05:02:00;4.40;99.90
46283;DHT22;32017;43.700;11.820;2023-03-01T05:04:20;4.50;99.90
46283;DHT22;32017;43.700;11.820;2023-03-01T05:06:44;4.50;99.90
46283;DHT22;32017;43.700;11.820;2023-03-01T05:09:04;4.40;99.90
46283;DHT22;32017;43.700;11.820;2023-03-01T05:11:26;4.30;99.90
46283;DHT22;32017;43.700;11.820;2023-03-01T05:13:47;4.30;99.90
46283;DHT22;32017;43.700;11.820;2023-03-01T05:16:10;4.20;99.90
46283;DHT22;32017;43.700;11.820;2023-03-01T05:18:32;4.20;99.90
46283;DHT22;32017;43.700;11.820;2023-03-01T05:20:53;4.20;99.90
46283;DHT22;32017;43.700;11.820;2023-03-01T05:23:15;4.30;99.90
46283;DHT22;32017;43.700;11.820;2023-03-01T05:25:36;4.30;99.90
46283;DHT22;32017;43.700;11.820;2023-03-01T05:28:03;4.40;99.90
46283;DHT22;32017;43.700;11.820;2023-03-01T05:30:23;4.50;99.90
46283;DHT22;32017;43.700;11.820;2023-03-01T05:32:47;4.50;99.90
46283;DHT22;32017;43.700;11.820;2023-03-01T05:35:08;4.50;99.90
46283;DHT22;32017;43.700;11.820;2023-03-01T05:37:28;4.30;99.90
46283;DHT22;32017;43.700;11.820;2023-03-01T05:39:49;4.10;99.90
46283;DHT22;32017;43.700;11.820;2023-03-01T05:42:11;4.10;99.90
46283;DHT22;32017;43.700;11.820;2023-03-01T05:44:31;4.00;99.90
46283;DHT22;32017;43.700;11.820;2023-03-01T05:46:53;3.90;99.90
46283;DHT22;32017;43.700;11.820;2023-03-01T05:49:18;3.90;99.90
46283;DHT22;32017;43.700;11.820;2023-03-01T05:51:40;3.70;99.90
46283;DHT22;32017;43.700;11.820;2023-03-01T05:54:01;3.60;99.90
46283;DHT22;32017;43.700;11.820;2023-03-01T05:56:22;3.60;99.90
46283;DHT22;32017;43.700;11.820;2023-03-01T05:58:43;3.50;99.90
46283;DHT22;32017;43.700;11.820;2023-03-01T06:01:04;3.50;99.90
46283;DHT22;32017;43.700;11.820;2023-03-01T06:03:24;3.50;99.90
46283;DHT22;32017;43.700;11.820;2023-03-01T06:05:45;3.70;99.90
46283;DHT22;32017;43.700;11.820;2023-03-01T06:08:05;3.70;99.90
46283;DHT22;32017;43.700;11.820;2023-03-01T06:10:25;3.70;99.90
46283;DHT22;32017;43.700;11.820;2023-03-01T06:12:46;3.80;99.90
46283;DHT22;32017;43.700;11.820;2023-03-01T06:15:07;3.80;99.90
46283;DHT22;32017;43.700;11.820;2023-03-01T06:17:30;3.70;99.90
46283;DHT22;32017;43.700;11.820;2023-03-01T06:19:51;3.60;99.90
46283;DHT22;32017;43.700;11.820;2023-03-01T06:22:11;3.70;99.90
46283;DHT22;32017;43.700;11.820;2023-03-01T06:24:31;3.80;99.90
46283;DHT22;32017;43.700;11.820;2023-03-01T06:26:52;3.70;99.90
46283;DHT22;32017;43.700;11.820;2023-03-01T06:29:13;3.80;99.90
46283;DHT22;32017;43.700;11.820;2023-03-01T06:31:35;3.80;99.90
46283;DHT22;32017;43.700;11.820;2023-03-01T06:33:55;3.80;99.90
46283;DHT22;32017;43.700;11.820;2023-03-01T06:36:15;3.80;99.90
46283;DHT22;32017;43.700;11.820;2023-03-01T06:38:37;3.80;99.90
46283;DHT22;32017;43.700;11.820;2023-03-01T06:40:59;3.70;99.90
46283;DHT22;32017;43.700;11.820;2023-03-01T06:43:19;3.70;99.90
46283;DHT22;32017;43.700;11.820;2023-03-01T06:45:39;3.70;99.90
46283;DHT22;32017;43.700;11.820;2023-03-01T06:48:04;3.70;99.90
46283;DHT22;32017;43.700;11.820;2023-03-01T06:50:24;3.70;99.90
46283;DHT22;32017;43.700;11.820;2023-03-01T06:52:44;3.70;99.90
46283;DHT22;32017;43.700;11.820;2023-03-01T06:55:06;3.50;99.90
46283;DHT22;32017;43.700;11.820;2023-03-01T06:57:29;3.50;99.90
46283;DHT22;32017;43.700;11.820;2023-03-01T06:59:49;3.50;99.90
46283;DHT22;32017;43.700;11.820;2023-03-01T07:02:15;3.50;99.90
46283;DHT22;32017;43.700;11.820;2023-03-01T07:04:35;3.50;99.90
46283;DHT22;32017;43.700;11.820;2023-03-01T07:06:55;3.50;99.90
46283;DHT22;32017;43.700;11.820;2023-03-01T07:09:15;3.50;99.90
46283;DHT22;32017;43.700;11.820;2023-03-01T07:11:40;3.40;99.90
46283;DHT22;32017;43.700;11.820;2023-03-01T07:14:00;3.40;99.90
46283;DHT22;32017;43.700;11.820;2023-03-01T07:16:20;3.40;99.90
46283;DHT22;32017;43.700;11.820;2023-03-01T07:18:41;3.40;99.90
46283;DHT22;32017;43.700;11.820;2023-03-01T07:21:05;3.50;99.90
46283;DHT22;32017;43.700;11.820;2023-03-01T07:23:25;3.50;99.90
46283;DHT22;32017;43.700;11.820;2023-03-01T07:25:54;3.50;99.90
46283;DHT22;32017;43.700;11.820;2023-03-01T07:28:14;3.50;99.90
46283;DHT22;32017;43.700;11.820;2023-03-01T07:30:33;3.50;99.90
46283;DHT22;32017;43.700;11.820;2023-03-01T07:32:55;3.40;99.90
46283;DHT22;32017;43.700;11.820;2023-03-01T07:35:15;3.40;99.90
46283;DHT22;32017;43.700;11.820;2023-03-01T07:37:37;3.50;99.90
46283;DHT22;32017;43.700;11.820;2023-03-01T07:39:57;3.50;99.90
46283;DHT22;32017;43.700;11.820;2023-03-01T07:42:17;3.50;99.90
46283;DHT22;32017;43.700;11.820;2023-03-01T07:44:37;3.50;99.90
46283;DHT22;32017;43.700;11.820;2023-03-01T07:46:56;3.50;99.90
46283;DHT22;32017;43.700;11.820;2023-03-01T07:49:17;3.50;99.90
46283;DHT22;32017;43.700;11.820;2023-03-01T07:51:37;3.50;99.90
46283;DHT22;32017;43.700;11.820;2023-03-01T07:53:56;3.50;99.90
46283;DHT22;32017;43.700;11.820;2023-03-01T07:56:18;3.50;99.90
46283;DHT22;32017;43.700;11.820;2023-03-01T07:58:41;3.60;99.90
46283;DHT22;32017;43.700;11.820;2023-03-01T08:01:03;3.60;99.90
46283;DHT22;32017;43.700;11.820;2023-03-01T08:03:23;3.60;99.90
46283;DHT22;32017;43.700;11.820;2023-03-01T08:05:44;3.60;99.90
46283;DHT22;32017;43.700;11.820;2023-03-01T08:08:04;3.60;99.90
46283;DHT22;32017;43.700;11.820;2023-03-01T08:10:24;3.70;99.90
46283;DHT22;32017;43.700;11.820;2023-03-01T08:12:45;3.60;99.90
46283;DHT22;32017;43.700;11.820;2023-03-01T08:15:05;3.60;99.90
46283;DHT22;32017;43.700;11.820;2023-03-01T08:17:25;3.60;99.90
46283;DHT22;32017;43.700;11.820;2023-03-01T08:19:45;3.60;99.90
46283;DHT22;32017;43.700;11.820;2023-03-01T08:22:05;3.60;99.90
46283;DHT22;32017;43.700;11.820;2023-03-01T08:24:26;3.60;99.90
46283;DHT22;32017;43.700;11.820;2023-03-01T08:26:47;3.40;99.90
46283;DHT22;32017;43.700;11.820;2023-03-01T08:29:06;3.50;99.90
46283;DHT22;32017;43.700;11.820;2023-03-01T08:31:31;3.50;99.90
46283;DHT22;32017;43.700;11.820;2023-03-01T08:33:54;3.50;99.90
46283;DHT22;32017;43.700;11.820;2023-03-01T08:36:16;3.60;99.90
46283;DHT22;32017;43.700;11.820;2023-03-01T08:38:36;3.60;99.90
46283;DHT22;32017;43.700;11.820;2023-03-01T08:41:00;3.70;99.90
46283;DHT22;32017;43.700;11.820;2023-03-01T08:43:19;3.70;99.90
46283;DHT22;32017;43.700;11.820;2023-03-01T08:45:41;3.70;99.90
46283;DHT22;32017;43.700;11.820;2023-03-01T08:48:01;3.70;99.90
46283;DHT22;32017;43.700;11.820;2023-03-01T08:50:21;3.80;99.90
46283;DHT22;32017;43.700;11.820;2023-03-01T08:52:43;3.80;99.90
46283;DHT22;32017;43.700;11.820;2023-03-01T08:55:03;3.90;99.90
46283;DHT22;32017;43.700;11.820;2023-03-01T08:57:23;3.90;99.90
46283;DHT22;32017;43.700;11.820;2023-03-01T08:59:42;3.90;99.90
46283;DHT22;32017;43.700;11.820;2023-03-01T09:02:06;4.00;99.90
46283;DHT22;32017;43.700;11.820;2023-03-01T09:04:30;4.00;99.90
46283;DHT22;32017;43.700;11.820;2023-03-01T09:06:51;4.00;99.90
46283;DHT22;32017;43.700;11.820;2023-03-01T09:09:16;4.00;99.90
46283;DHT22;32017;43.700;11.820;2023-03-01T09:11:38;4.00;99.90
46283;DHT22;32017;43.700;11.820;2023-03-01T09:13:58;4.10;99.90
46283;DHT22;32017;43.700;11.820;2023-03-01T09:16:20;4.10;99.90
46283;DHT22;32017;43.700;11.820;2023-03-01T09:18:40;4.20;99.90
46283;DHT22;32017;43.700;11.820;2023-03-01T09:21:04;4.20;99.90
46283;DHT22;32017;43.700;11.820;2023-03-01T09:23:26;4.30;99.90
46283;DHT22;32017;43.700;11.820;2023-03-01T09:25:47;4.30;99.90
46283;DHT22;32017;43.700;11.820;2023-03-01T09:28:07;4.30;99.90
46283;DHT22;32017;43.700;11.820;2023-03-01T09:30:26;4.40;99.90
46283;DHT22;32017;43.700;11.820;2023-03-01T09:32:48;4.30;99.90
46283;DHT22;32017;43.700;11.820;2023-03-01T09:35:08;4.40;99.90
46283;DHT22;32017;43.700;11.820;2023-03-01T09:37:33;4.40;99.90
46283;DHT22;32017;43.700;11.820;2023-03-01T09:39:54;4.30;99.90
46283;DHT22;32017;43.700;11.820;2023-03-01T09:42:15;4.30;99.90
46283;DHT22;32017;43.700;11.820;2023-03-01T09:44:50;4.30;99.90
46283;DHT22;32017;43.700;11.820;2023-03-01T09:47:23;4.20;99.90
46283;DHT22;32017;43.700;11.820;2023-03-01T09:49:57;4.10;99.90
46283;DHT22;32017;43.700;11.820;2023-03-01T09:52:41;4.00;99.90
46283;DHT22;32017;43.700;11.820;2023-03-01T09:55:30;3.80;99.90
46283;DHT22;32017;43.700;11.820;2023-03-01T09:57:53;3.80;99.90
46283;DHT22;32017;43.700;11.820;2023-03-01T10:02:45;3.40;99.90
46283;DHT22;32017;43.700;11.820;2023-03-01T10:08:02;3.40;99.90
46283;DHT22;32017;43.700;11.820;2023-03-01T10:10:40;3.30;99.90
46283;DHT22;32017;43.700;11.820;2023-03-01T10:16:21;3.10;99.90
46283;DHT22;32017;43.700;11.820;2023-03-01T10:18:43;3.10;99.90
46283;DHT22;32017;43.700;11.820;2023-03-01T10:21:16;2.90;99.90
46283;DHT22;32017;43.700;11.820;2023-03-01T10:23:37;2.80;99.90
46283;DHT22;32017;43.700;11.820;2023-03-01T10:29:06;2.80;99.90
46283;DHT22;32017;43.700;11.820;2023-03-01T10:34:08;2.80;99.90
46283;DHT22;32017;43.700;11.820;2023-03-01T10:36:32;2.90;99.90
46283;DHT22;32017;43.700;11.820;2023-03-01T10:38:53;2.90;99.90
46283;DHT22;32017;43.700;11.820;2023-03-01T10:41:15;3.00;99.90
46283;DHT22;32017;43.700;11.820;2023-03-01T10:43:53;2.90;99.90
46283;DHT22;32017;43.700;11.820;2023-03-01T10:46:33;2.70;99.90
46283;DHT22;32017;43.700;11.820;2023-03-01T10:51:40;2.80;99.90
46283;DHT22;32017;43.700;11.820;2023-03-01T10:54:01;2.70;99.90
46283;DHT22;32017;43.700;11.820;2023-03-01T10:56:22;2.70;99.90
46283;DHT22;32017;43.700;11.820;2023-03-01T11:03:38;2.10;99.90
46283;DHT22;32017;43.700;11.820;2023-03-01T11:06:03;2.30;99.90
46283;DHT22;32017;43.700;11.820;2023-03-01T11:08:43;2.20;99.90
46283;DHT22;32017;43.700;11.820;2023-03-01T11:11:21;2.30;99.90
46283;DHT22;32017;43.700;11.820;2023-03-01T11:14:06;2.30;99.90
46283;DHT22;32017;43.700;11.820;2023-03-01T11:16:49;2.40;99.90
46283;DHT22;32017;43.700;11.820;2023-03-01T11:19:19;2.30;99.90
46283;DHT22;32017;43.700;11.820;2023-03-01T11:22:22;2.20;99.90
46283;DHT22;32017;43.700;11.820;2023-03-01T11:24:42;2.00;99.90
46283;DHT22;32017;43.700;11.820;2023-03-01T11:27:19;1.80;99.90
46283;DHT22;32017;43.700;11.820;2023-03-01T11:29:45;1.60;99.90
46283;DHT22;32017;43.700;11.820;2023-03-01T11:35:31;1.40;99.90
46283;DHT22;32017;43.700;11.820;2023-03-01T11:40:29;1.20;99.90
46283;DHT22;32017;43.700;11.820;2023-03-01T11:45:47;1.10;99.90
46283;DHT22;32017;43.700;11.820;2023-03-01T11:56:45;1.10;99.90
46283;DHT22;32017;43.700;11.820;2023-03-01T11:59:11;1.00;99.90
46283;DHT22;32017;43.700;11.820;2023-03-01T12:01:55;1.10;99.90
46283;DHT22;32017;43.700;11.820;2023-03-01T12:04:46;1.20;99.90
46283;DHT22;32017;43.700;11.820;2023-03-01T12:34:30;1.00;99.90
46283;DHT22;32017;43.700;11.820;2023-03-01T12:40:26;0.90;99.90
46283;DHT22;32017;43.700;11.820;2023-03-01T12:51:07;0.70;99.90
46283;DHT22;32017;43.700;11.820;2023-03-01T12:53:34;0.80;99.90
46283;DHT22;32017;43.700;11.820;2023-03-01T12:56:08;1.00;99.90
46283;DHT22;32017;43.700;11.820;2023-03-01T12:58:32;1.10;99.90
46283;DHT22;32017;43.700;11.820;2023-03-01T13:01:18;1.10;99.90
46283;DHT22;32017;43.700;11.820;2023-03-01T13:09:21;1.20;99.90
46283;DHT22;32017;43.700;11.820;2023-03-01T13:11:44;1.20;99.90
46283;DHT22;32017;43.700;11.820;2023-03-01T13:16:43;1.30;99.90
46283;DHT22;32017;43.700;11.820;2023-03-01T13:19:15;1.40;99.90
46283;DHT22;32017;43.700;11.820;2023-03-01T13:21:37;1.40;99.90
46283;DHT22;32017;43.700;11.820;2023-03-01T13:23:57;1.30;99.90
46283;DHT22;32017;43.700;11.820;2023-03-01T13:26:17;1.40;99.90
46283;DHT22;32017;43.700;11.820;2023-03-01T13:28:45;1.30;99.90
46283;DHT22;32017;43.700;11.820;2023-03-01T13:31:11;1.40;99.90
46283;DHT22;32017;43.700;11.820;2023-03-01T13:33:54;1.40;99.90
46283;DHT22;32017;43.700;11.820;2023-03-01T13:41:17;1.40;99.90
46283;DHT22;32017;43.700;11.820;2023-03-01T13:43:55;1.40;99.90
46283;DHT22;32017;43.700;11.820;2023-03-01T13:46:23;1.30;99.90
46283;DHT22;32017;43.700;11.820;2023-03-01T13:48:47;1.30;99.90
46283;DHT22;32017;43.700;11.820;2023-03-01T13:51:10;1.30;99.90
46283;DHT22;32017;43.700;11.820;2023-03-01T13:53:34;1.30;99.90
46283;DHT22;32017;43.700;11.820;2023-03-01T13:55:58;1.30;99.90
46283;DHT22;32017;43.700;11.820;2023-03-01T14:00:42;1.30;99.90
46283;DHT22;32017;43.700;11.820;2023-03-01T14:03:18;1.30;99.90
46283;DHT22;32017;43.700;11.820;2023-03-01T14:05:41;1.40;99.90
46283;DHT22;32017;43.700;11.820;2023-03-01T14:08:05;1.30;99.90
46283;DHT22;32017;43.700;11.820;2023-03-01T14:10:37;1.40;99.90
46283;DHT22;32017;43.700;11.820;2023-03-01T14:13:47;1.40;99.90
46283;DHT22;32017;43.700;11.820;2023-03-01T14:16:33;1.40;99.90
46283;DHT22;32017;43.700;11.820;2023-03-01T14:19:08;1.50;99.90
46283;DHT22;32017;43.700;11.820;2023-03-01T14:21:37;1.50;99.90
46283;DHT22;32017;43.700;11.820;2023-03-01T14:23:58;1.50;99.90
46283;DHT22;32017;43.700;11.820;2023-03-01T14:26:22;1.60;99.90
46283;DHT22;32017;43.700;11.820;2023-03-01T14:28:43;1.60;99.90
46283;DHT22;32017;43.700;11.820;2023-03-01T14:31:05;1.60;99.90
46283;DHT22;32017;43.700;11.820;2023-03-01T14:33:54;1.70;99.90
46283;DHT22;32017;43.700;11.820;2023-03-01T14:36:15;1.70;99.90
46283;DHT22;32017;43.700;11.820;2023-03-01T14:38:47;1.70;99.90
46283;DHT22;32017;43.700;11.820;2023-03-01T14:41:14;1.70;99.90
46283;DHT22;32017;43.700;11.820;2023-03-01T14:43:37;1.80;99.90
46283;DHT22;32017;43.700;11.820;2023-03-01T14:45:57;1.70;99.90
46283;DHT22;32017;43.700;11.820;2023-03-01T14:48:18;1.80;99.90
46283;DHT22;32017;43.700;11.820;2023-03-01T14:50:43;1.70;99.90
46283;DHT22;32017;43.700;11.820;2023-03-01T14:53:05;1.80;99.90
46283;DHT22;32017;43.700;11.820;2023-03-01T14:55:38;1.80;99.90
46283;DHT22;32017;43.700;11.820;2023-03-01T14:58:04;1.90;99.90
46283;DHT22;32017;43.700;11.820;2023-03-01T15:00:27;2.00;99.90
46283;DHT22;32017;43.700;11.820;2023-03-01T15:02:49;2.00;99.90
46283;DHT22;32017;43.700;11.820;2023-03-01T15:05:10;2.00;99.90
46283;DHT22;32017;43.700;11.820;2023-03-01T15:07:37;2.00;99.90
46283;DHT22;32017;43.700;11.820;2023-03-01T15:09:59;1.90;99.90
46283;DHT22;32017;43.700;11.820;2023-03-01T15:14:48;1.90;99.90
46283;DHT22;32017;43.700;11.820;2023-03-01T15:17:35;1.90;99.90
46283;DHT22;32017;43.700;11.820;2023-03-01T15:19:55;1.90;99.90
46283;DHT22;32017;43.700;11.820;2023-03-01T15:22:16;1.90;99.90
46283;DHT22;32017;43.700;11.820;2023-03-01T15:24:36;1.80;99.90
46283;DHT22;32017;43.700;11.820;2023-03-01T15:26:59;1.80;99.90
46283;DHT22;32017;43.700;11.820;2023-03-01T15:29:26;1.80;99.90
46283;DHT22;32017;43.700;11.820;2023-03-01T15:32:04;1.80;99.90
46283;DHT22;32017;43.700;11.820;2023-03-01T15:34:30;1.80;99.90
46283;DHT22;32017;43.700;11.820;2023-03-01T15:36:56;1.80;99.90
46283;DHT22;32017;43.700;11.820;2023-03-01T15:39:37;1.70;99.90
46283;DHT22;32017;43.700;11.820;2023-03-01T15:41:58;1.70;99.90
46283;DHT22;32017;43.700;11.820;2023-03-01T15:44:27;1.70;99.90
46283;DHT22;32017;43.700;11.820;2023-03-01T15:49:59;1.70;99.90
46283;DHT22;32017;43.700;11.820;2023-03-01T15:52:29;1.80;99.90
46283;DHT22;32017;43.700;11.820;2023-03-01T15:54:51;1.70;99.90
46283;DHT22;32017;43.700;11.820;2023-03-01T15:57:13;1.70;99.90
46283;DHT22;32017;43.700;11.820;2023-03-01T15:59:34;1.80;99.90
46283;DHT22;32017;43.700;11.820;2023-03-01T16:01:54;1.80;99.90
46283;DHT22;32017;43.700;11.820;2023-03-01T16:04:17;1.80;99.90
46283;DHT22;32017;43.700;11.820;2023-03-01T16:06:42;1.80;99.90
46283;DHT22;32017;43.700;11.820;2023-03-01T16:09:02;1.80;99.90
46283;DHT22;32017;43.700;11.820;2023-03-01T16:11:22;1.90;99.90
46283;DHT22;32017;43.700;11.820;2023-03-01T16:13:43;1.80;99.90
46283;DHT22;32017;43.700;11.820;2023-03-01T16:16:03;1.90;99.90
46283;DHT22;32017;43.700;11.820;2023-03-01T16:18:24;1.90;99.90
46283;DHT22;32017;43.700;11.820;2023-03-01T16:20:44;1.90;99.90
46283;DHT22;32017;43.700;11.820;2023-03-01T16:23:06;2.00;99.90
46283;DHT22;32017;43.700;11.820;2023-03-01T16:25:26;2.00;99.90
46283;DHT22;32017;43.700;11.820;2023-03-01T16:27:48;2.00;99.90
46283;DHT22;32017;43.700;11.820;2023-03-01T16:30:08;2.00;99.90
46283;DHT22;32017;43.700;11.820;2023-03-01T16:32:28;2.00;99.90
46283;DHT22;32017;43.700;11.820;2023-03-01T16:34:49;2.00;99.90
46283;DHT22;32017;43.700;11.820;2023-03-01T16:37:09;2.00;99.90
46283;DHT22;32017;43.700;11.820;2023-03-01T16:39:28;2.00;99.90
46283;DHT22;32017;43.700;11.820;2023-03-01T16:41:49;2.10;99.90
46283;DHT22;32017;43.700;11.820;2023-03-01T16:44:09;2.00;99.90
46283;DHT22;32017;43.700;11.820;2023-03-01T16:46:29;2.00;99.90
46283;DHT22;32017;43.700;11.820;2023-03-01T16:48:50;2.00;99.90
46283;DHT22;32017;43.700;11.820;2023-03-01T16:51:10;2.00;99.90
46283;DHT22;32017;43.700;11.820;2023-03-01T16:53:30;2.10;99.90
46283;DHT22;32017;43.700;11.820;2023-03-01T16:55:57;2.00;99.90
46283;DHT22;32017;43.700;11.820;2023-03-01T16:58:17;2.00;99.90
46283;DHT22;32017;43.700;11.820;2023-03-01T17:00:38;2.00;99.90
46283;DHT22;32017;43.700;11.820;2023-03-01T17:02:58;2.10;99.90